Flight Track Log - Related Links

Times and Time Zones

All times are in EDT time to prevent confusion due to time zone crossing. See the AAY843 flight status page for this flight to view local times or setup timezone preferences in your user account.

Time Position Orientation Groundspeed Altitude Reporting Facility
EDT Latitude Longitude Course Direction KTS MPH feet Rate Location/Type
Sun 10:34:41 AM 43.0986 -76.1858 205° Southwest 188 216 2,600  Level Boston Center
Sun 10:35:42 AM 43.0367 -76.2364 211° Southwest 268 308 4,800 2,233 Climbing Boston Center
Sun 10:36:07 AM 43.0164 -76.2567 216° Southwest 271 312 5,800 3,045 Climbing Boston Center
Sun 10:36:49 AM 42.9731 -76.2947 213° Southwest 268 308 8,200 3,200 Climbing Boston Center
Sun 10:37:07 AM 42.9572 -76.3108 217° Southwest 262 302 9,000 1,367 Climbing Boston Center
Sun 10:38:08 AM 42.8939 -76.3644 212° Southwest 262 302 10,000 677 Climbing Boston Center
Sun 10:39:11 AM 42.8172 -76.4233 209° Southwest 313 360 10,400 1,440 Climbing Boston Center
Sun 10:40:00 AM 42.5432 -76.6668 205° Southwest  Level FlightAware Approximate
Sun 10:40:13 AM 42.7322 -76.4953 212° Southwest 351 404 13,000  Level Boston Center
Sun 10:41:13 AM 42.6464 -76.5719 213° Southwest 364 419 15,200 2,213 Climbing Boston Center
Sun 10:42:15 AM 42.5536 -76.6506 212° Southwest 387 445 17,500 1,968 Climbing Boston Center
Sun 10:43:18 AM 42.4358 -76.7422 210° Southwest 403 464 19,300 1,839 Climbing Boston Center
Sun 10:44:19 AM 42.3356 -76.8239 211° Southwest 414 476 21,300 1,707 Climbing Boston Center
Sun 10:45:21 AM 42.2342 -76.9114 213° Southwest 424 488 22,800 1,415 Climbing Boston Center
Sun 10:46:22 AM 42.1294 -76.9961 211° Southwest 433 498 24,200 1,561 Climbing Boston Center
Sun 10:47:24 AM 42.0036 -77.0006 182° South 464 534 26,000 1,344 Climbing Boston Center
Sun 10:48:27 AM 41.8758 -77.0092 183° South 462 532 27,000 1,403 Climbing Boston Center
Sun 10:49:28 AM 41.7494 -77.0456 192° South 464 534 28,900 1,377 Climbing Boston Center
Sun 10:50:29 AM 41.6167 -77.0819 192° South 458 527 29,800 960 Climbing Boston Center
Sun 10:51:33 AM 41.4908 -77.1167 192° South 458 527 30,900 985 Climbing Boston Center
Sun 10:52:43 AM 41.3406 -77.1708 195° South 460 529 32,000 504 Climbing New York Center
Sun 10:53:44 AM 41.2156 -77.2114 194° South 465 535 32,000  Level New York Center
Sun 10:54:42 AM 41.0883 -77.2517 193° South 465 535 32,000  Level New York Center
Sun 10:55:43 AM 40.9656 -77.2842 191° South 465 535 32,000  Level New York Center
Sun 10:56:44 AM 40.8406 -77.3214 193° South 459 528 32,000  Level New York Center
Sun 10:57:42 AM 40.7069 -77.3636 193° South 454 522 32,000  Level New York Center
Sun 11:00:03 AM 40.4453 -77.4447 193° South 459 528 32,000  Level Washington Center
Sun 11:01:01 AM 40.2967 -77.4869 192° South 459 528 32,000  Level Washington Center
Sun 11:02:02 AM 40.1733 -77.5244 193° South 454 522 32,000  Level Washington Center
Sun 11:03:02 AM 40.0497 -77.5617 193° South 454 522 32,000  Level Washington Center
Sun 11:04:03 AM 39.9283 -77.5992 193° South 454 522 32,000  Level Washington Center
Sun 11:05:01 AM 39.8067 -77.6361 193° South 454 522 32,000  Level Washington Center
Sun 11:06:02 AM 39.6853 -77.6706 192° South 454 522 32,000  Level Washington Center
Sun 11:07:02 AM 39.5639 -77.7072 193° South 454 522 32,000  Level Washington Center
Sun 11:08:03 AM 39.4444 -77.7442 193° South 454 522 32,000  Level Washington Center
Sun 11:09:03 AM 39.3231 -77.7781 192° South 454 522 32,000  Level Washington Center
Sun 11:10:01 AM 39.2014 -77.8147 193° South 454 522 32,000  Level Washington Center
Sun 11:11:01 AM 39.0797 -77.8483 192° South 454 522 32,000  Level Washington Center
Sun 11:12:02 AM 38.9603 -77.8900 195° South 454 522 32,000  Level Washington Center
Sun 11:13:03 AM 38.8469 -77.9239 193° South 454 522 32,000  Level Washington Center
Sun 11:14:01 AM 38.7256 -77.9547 191° South 454 522 32,000  Level Washington Center
Sun 11:15:02 AM 38.6061 -77.9881 192° South 454 522 32,000  Level Washington Center
Sun 11:16:03 AM 38.4844 -78.0214 192° South 448 516 32,000  Level Washington Center
Sun 11:17:03 AM 38.3628 -78.0544 192° South 448 516 32,000  Level Washington Center
Sun 11:18:02 AM 38.2433 -78.0900 193° South 448 516 32,000  Level Washington Center
Sun 11:19:02 AM 38.1236 -78.1231 192° South 448 516 32,000  Level Washington Center
Sun 11:20:03 AM 37.9975 -78.1689 196° South 448 516 32,000  Level Washington Center
Sun 11:21:01 AM 37.9103 -78.2475 215° Southwest 430 495 32,000  Level Washington Center
Sun 11:22:02 AM 37.8164 -78.3442 219° Southwest 436 502 32,000  Level Washington Center
Sun 11:23:03 AM 37.7244 -78.4378 219° Southwest 436 502 32,000  Level Washington Center
Sun 11:24:03 AM 37.6264 -78.5286 216° Southwest 436 502 32,000  Level Washington Center
Sun 11:25:02 AM 37.5261 -78.6164 215° Southwest 436 502 32,000  Level Washington Center
Sun 11:26:02 AM 37.4278 -78.7067 216° Southwest 442 509 32,000  Level Washington Center
Sun 11:27:03 AM 37.3314 -78.8019 218° Southwest 442 509 32,000  Level Washington Center
Sun 11:28:00 AM 37.2331 -78.8944 217° Southwest 442 509 32,000  Level Washington Center
Sun 11:29:01 AM 37.1325 -78.9839 215° Southwest 442 509 32,000  Level Washington Center
Sun 11:30:01 AM 37.0339 -79.0731 216° Southwest 442 509 32,000  Level Washington Center
Sun 11:31:02 AM 36.9353 -79.1647 217° Southwest 442 509 32,000  Level Washington Center
Sun 11:32:01 AM 36.8344 -79.2589 217° Southwest 447 514 32,000  Level Washington Center
Sun 11:33:02 AM 36.7356 -79.3500 216° Southwest 447 514 32,000  Level Washington Center
Sun 11:34:03 AM 36.6347 -79.4408 216° Southwest 447 514 32,000  Level Washington Center
Sun 11:36:17 AM 36.4053 -79.6483 216° Southwest 452 520 32,000  Level Atlanta Center
Sun 11:37:17 AM 36.3042 -79.7414 217° Southwest 457 526 32,000  Level Atlanta Center
Sun 11:38:17 AM 36.2031 -79.8317 216° Southwest 457 526 32,000  Level Atlanta Center
Sun 11:39:17 AM 36.0997 -79.9244 216° Southwest 462 532 32,000  Level Atlanta Center
Sun 11:40:17 AM 35.9939 -80.0017 211° Southwest 462 532 32,000  Level Atlanta Center
Sun 11:41:17 AM 35.8811 -80.0586 202° Southwest 442 509 32,000  Level Atlanta Center
Sun 11:42:17 AM 35.7658 -80.1103 200° South 442 509 32,000  Level Atlanta Center
Sun 11:43:17 AM 35.6406 -80.1725 202° Southwest 442 509 32,000  Level Atlanta Center
Sun 11:44:17 AM 35.5300 -80.2339 204° Southwest 442 509 32,000  Level Atlanta Center
Sun 11:45:17 AM 35.4192 -80.2925 203° Southwest 442 509 32,000  Level Atlanta Center
Sun 11:46:17 AM 35.3100 -80.3458 202° Southwest 437 503 32,000  Level Atlanta Center
Sun 11:47:17 AM 35.1950 -80.4019 202° Southwest 437 503 32,000  Level Atlanta Center
Sun 11:48:17 AM 35.0839 -80.4575 202° Southwest 437 503 32,000  Level Atlanta Center
Sun 11:49:04 AM 34.9964 -80.4981 201° Southwest 438 504 32,000  Level Jacksonville Center
Sun 11:50:04 AM 34.8994 -80.5489 203° Southwest 428 493 32,000  Level Jacksonville Center
Sun 11:51:04 AM 34.7942 -80.6047 204° Southwest 428 493 32,000  Level Jacksonville Center
Sun 11:52:04 AM 34.6803 -80.6583 201° Southwest 428 493 32,000  Level Jacksonville Center
Sun 11:53:04 AM 34.5647 -80.7192 203° Southwest 445 512 32,000  Level Jacksonville Center
Sun 11:54:04 AM 34.4406 -80.7803 202° Southwest 445 512 32,000  Level Jacksonville Center
Sun 11:55:04 AM 34.3453 -80.8253 201° Southwest 438 504 32,000  Level Jacksonville Center
Sun 11:56:04 AM 34.2397 -80.8731 201° Southwest 424 488 32,000  Level Jacksonville Center
Sun 11:57:04 AM 34.1258 -80.9283 202° Southwest 419 482 32,000  Level Jacksonville Center
Sun 11:58:04 AM 34.0181 -80.9808 202° Southwest 425 489 32,000  Level Jacksonville Center
Sun 12:00:04 PM 33.7819 -81.0908 201° Southwest 436 502 32,000  Level Jacksonville Center
Sun 12:01:04 PM 33.6783 -81.1456 204° Southwest 441 507 32,000  Level Jacksonville Center
Sun 12:02:04 PM 33.5683 -81.2000 202° Southwest 441 507 32,000  Level Jacksonville Center
Sun 12:03:04 PM 33.4586 -81.2544 202° Southwest 436 502 32,000  Level Jacksonville Center
Sun 12:04:04 PM 33.3464 -81.3086 202° Southwest 436 502 32,000  Level Jacksonville Center
Sun 12:06:04 PM 33.1286 -81.4142 202° Southwest 430 495 32,000  Level Jacksonville Center
Sun 12:07:04 PM 33.0164 -81.4681 202° Southwest 430 495 32,000  Level Jacksonville Center
Sun 12:08:04 PM 32.9086 -81.5217 203° Southwest 430 495 32,000  Level Jacksonville Center
Sun 12:09:04 PM 32.7964 -81.5753 202° Southwest 430 495 32,000  Level Jacksonville Center
Sun 12:10:04 PM 32.6883 -81.6289 203° Southwest 435 501 32,000  Level Jacksonville Center
Sun 12:11:04 PM 32.5658 -81.6872 202° Southwest 430 495 32,000  Level Jacksonville Center
Sun 12:12:04 PM 32.4639 -81.7378 203° Southwest 435 501 32,000  Level Jacksonville Center
Sun 12:13:04 PM 32.3392 -81.7958 201° Southwest 435 501 32,000  Level Jacksonville Center
Sun 12:14:04 PM 32.2247 -81.8464 200° South 435 501 32,000  Level Jacksonville Center
Sun 12:15:04 PM 32.1164 -81.8672 189° South 435 501 32,000  Level Jacksonville Center
Sun 12:16:04 PM 31.9831 -81.8908 189° South 441 507 32,000  Level Jacksonville Center
Sun 12:17:04 PM 31.8747 -81.9092 188° South 446 513 32,000  Level Jacksonville Center
Sun 12:18:04 PM 31.7411 -81.9397 191° South 446 513 32,000  Level Jacksonville Center
Sun 12:19:04 PM 31.6203 -81.9656 190° South 452 520 32,000  Level Jacksonville Center
Sun 12:20:04 PM 31.5139 -81.9861 189° South 445 512 32,000  Level Jacksonville Center
Sun 12:21:04 PM 31.3783 -82.0117 189° South 445 512 32,000  Level Jacksonville Center
Sun 12:22:04 PM 31.2700 -82.0344 190° South 451 519 32,000  Level Jacksonville Center
Sun 12:23:04 PM 31.1492 -82.0600 190° South 445 512 32,000  Level Jacksonville Center
Sun 12:24:04 PM 31.0303 -82.0828 189° South 445 512 32,000  Level Jacksonville Center
Sun 12:25:04 PM 30.9072 -82.1056 189° South 445 512 32,000  Level Jacksonville Center
Sun 12:27:04 PM 30.6611 -82.1536 190° South 445 512 32,000  Level Jacksonville Center
Sun 12:28:04 PM 30.5422 -82.1739 188° South 445 512 32,000  Level Jacksonville Center
Sun 12:29:04 PM 30.4169 -82.1989 190° South 450 518 32,000  Level Jacksonville Center
Sun 12:30:04 PM 30.2939 -82.2214 189° South 450 518 32,000  Level Jacksonville Center
Sun 12:31:04 PM 30.1708 -82.2439 189° South 450 518 32,000  Level Jacksonville Center
Sun 12:32:04 PM 30.0478 -82.2686 190° South 450 518 32,000 -450 Level Jacksonville Center
Sun 12:33:04 PM 29.9103 -82.2983 191° South 450 518 31,100 -1,100 Descending Jacksonville Center
Sun 12:34:04 PM 29.7892 -82.3231 190° South 450 518 29,800 -1,300 Descending Jacksonville Center
Sun 12:35:04 PM 29.6767 -82.3381 187° South 450 518 28,500 -600 Descending Jacksonville Center
Sun 12:37:04 PM 29.4819 -82.2269 154° Southeast 386 444 28,000 -425 Descending Jacksonville Center
Sun 12:39:04 PM 29.2833 -82.2022 174° South 361 415 26,800 -833 Descending Jacksonville Center
Sun 12:40:04 PM 29.1856 -82.2336 196° South 366 421 25,500 -1,600 Descending Jacksonville Center
Sun 12:41:04 PM 29.0856 -82.2653 195° South 366 421 23,600 -1,900 Descending Jacksonville Center
Sun 12:42:04 PM 28.9917 -82.2919 194° South 371 427 21,700 -2,150 Descending Jacksonville Center
Sun 12:43:04 PM 28.8917 -82.3186 193° South 356 410 19,300 -2,369 Descending Jacksonville Center
Sun 12:44:41 PM 28.7500 -82.3000 173° South 319 367 15,500 -2,637 Descending Tampa TRACON
Sun 12:45:41 PM 28.6500 -82.2833 172° South 330 380 12,400 -2,550 Descending Tampa TRACON
Sun 12:46:41 PM 28.6000 -82.3333 221° Southwest 315 362 10,400 -1,200 Descending Tampa TRACON
Sun 12:47:41 PM 28.5667 -82.4333 249° West 307 353 10,000 -300 Descending Tampa TRACON
Sun 12:48:41 PM 28.5500 -82.5167 257° West 302 348 9,800 -900 Descending Tampa TRACON
Sun 12:49:41 PM 28.5167 -82.6000 246° West 275 316 8,200 -1,600 Descending Tampa TRACON
Sun 12:50:41 PM 28.4833 -82.6833 246° West 273 314 6,600 -1,100 Descending Tampa TRACON
Sun 12:51:41 PM 28.4500 -82.7500 240° Southwest 241 277 6,000 -400 Descending Tampa TRACON
Sun 12:52:41 PM 28.4000 -82.7667 196° South 222 255 5,800 -686 Descending Tampa TRACON
Sun 12:53:26 PM 28.3519 -82.7739 188° South 232 267 4,800 -1,300 Descending Miami Center
Sun 12:54:41 PM 28.2667 -82.7833 186° South 222 255 3,200 -756 Descending Tampa TRACON
Sun 12:55:41 PM 28.2167 -82.7833 180° South 220 253 3,100 -53 Descending Tampa TRACON
Sun 12:56:35 PM 28.1500 -82.7833 180° South 218 251 3,100  Level Tampa TRACON
Sun 12:57:35 PM 28.1000 -82.7833 180° South 221 254 3,100  Level Tampa TRACON
Sun 12:58:29 PM 28.0333 -82.7667 168° South 219 252 3,100  Level Tampa TRACON
Sun 12:59:35 PM 27.9833 -82.7667 180° South 217 250 3,100 -95 Level Tampa TRACON
Sun 01:00:35 PM 27.9167 -82.7500 168° South 215 247 2,900 -250 Descending Tampa TRACON
Sun 01:01:35 PM 27.8667 -82.7500 180° South 212 244 2,600 -397 Descending Tampa TRACON
Sun 01:02:36 PM 27.8000 -82.7333 168° South 204 235 2,100 -595 Descending Tampa TRACON
Sun 01:03:36 PM 27.8167 -82.6833 69° East 179 206 1,400 -706 Descending Tampa TRACON
Sun 01:04:35 PM 27.8667 -82.6833 360° North 144 166 700 -712 Descending Tampa TRACON

Login

Don't have an account? Register now (free) for customized features, flight alerts, and more!